Lake Arthur, New Mexico
Current Conditions -  °F | °C
As of 10:51 AM on Thursday 30 Oct 2014 (Local Time) from KROW Reporting Station
Clear Clear  
Wind Chill: 69°   Ceiling: Unl
Heat Index: 69°   Visibility: 10mi
Dew Point: 35°   Wind: 18mph
Humidity: 29%   Direction: 10°N
Pressure: 30.26"   Gusts: 25mph
Location:  33°N, 104.37°W
Report Text: KROW 301651Z 01016G22KT 10SM CLR 21/02 A3026 RMK AO2 SLP203 T02060017
Loading
Personal Weather Stations






























Interactive Weather Map
Tropical Storm Tracking
New forecast layout! Learn more

10-Day Weather Forecast

Advertisements
Track Severe Weather on mobile